createdAt,value
2019-06-26T00:01:38.244Z,23.10
2019-06-26T00:04:04.803Z,23.00
2019-06-26T00:06:31.148Z,23.00
2019-06-26T00:08:57.580Z,23.10
2019-06-26T00:13:50.398Z,23.10
2019-06-26T00:16:16.876Z,23.10
2019-06-26T00:21:09.684Z,23.00
2019-06-26T00:23:35.757Z,23.00
2019-06-26T00:26:01.833Z,23.10
2019-06-26T00:28:27.880Z,23.00
2019-06-26T00:33:20.680Z,23.00
2019-06-26T00:35:47.036Z,22.90
2019-06-26T00:38:13.088Z,22.90
2019-06-26T00:40:39.159Z,22.90
2019-06-26T00:43:05.589Z,22.80
2019-06-26T00:47:58.765Z,22.80
2019-06-26T00:52:51.520Z,22.80
2019-06-26T01:00:13.840Z,22.80
2019-06-26T01:05:11.983Z,22.80
2019-06-26T01:10:08.120Z,22.70
2019-06-26T01:12:34.551Z,22.70
2019-06-26T01:15:00.883Z,22.70
2019-06-26T01:17:26.933Z,22.70
2019-06-26T01:19:53.499Z,22.60
2019-06-26T01:24:46.080Z,22.60
2019-06-26T01:27:12.432Z,22.60
2019-06-26T01:29:38.512Z,22.60
2019-06-26T01:32:04.688Z,22.50
2019-06-26T01:34:30.749Z,22.60
2019-06-26T01:39:23.268Z,22.60
2019-06-26T01:41:49.552Z,22.60
2019-06-26T01:44:15.874Z,22.60
2019-06-26T01:46:43.132Z,22.50
2019-06-26T01:49:09.504Z,22.50
2019-06-26T01:54:02.078Z,22.50
2019-06-26T01:56:28.488Z,22.50
2019-06-26T02:01:21.677Z,22.40
2019-06-26T02:03:48.680Z,22.40
2019-06-26T02:08:41.680Z,22.30
2019-06-26T02:11:07.749Z,22.30
2019-06-26T02:13:34.137Z,22.30
2019-06-26T02:16:00.462Z,22.30
2019-06-26T02:18:40.312Z,22.30
2019-06-26T02:21:06.474Z,22.30
2019-06-26T02:23:32.546Z,22.30
2019-06-26T02:25:59.219Z,22.20
2019-06-26T02:28:25.270Z,22.20
2019-06-26T02:35:44.534Z,22.20
2019-06-26T02:38:10.604Z,22.20
2019-06-26T02:40:36.970Z,22.20
2019-06-26T02:47:58.186Z,22.10
2019-06-26T02:50:24.240Z,22.10
2019-06-26T02:52:50.288Z,22.10
2019-06-26T02:55:16.711Z,22.00
2019-06-26T02:57:43.128Z,22.10
2019-06-26T03:05:04.568Z,22.10
2019-06-26T03:07:31.017Z,22.00
2019-06-26T03:09:57.068Z,22.00
2019-06-26T03:14:49.561Z,22.00
2019-06-26T03:19:42.652Z,21.90
2019-06-26T03:22:08.787Z,21.90
2019-06-26T03:24:35.112Z,21.90
2019-06-26T03:27:01.161Z,22.00
2019-06-26T03:29:27.224Z,21.90
2019-06-26T03:31:53.590Z,21.90
2019-06-26T03:34:19.941Z,21.90
2019-06-26T03:39:12.853Z,21.80
2019-06-26T03:41:38.905Z,21.80
2019-06-26T03:44:05.480Z,21.80
2019-06-26T03:53:51.493Z,21.80
2019-06-26T03:56:17.805Z,21.80
2019-06-26T03:58:43.867Z,21.70
2019-06-26T04:01:09.935Z,21.80
2019-06-26T04:03:35.985Z,21.80
2019-06-26T04:06:02.309Z,21.80
2019-06-26T04:08:28.397Z,21.80
2019-06-26T04:10:54.442Z,21.80
2019-06-26T04:13:20.805Z,21.80
2019-06-26T04:15:46.857Z,21.90
2019-06-26T04:20:39.500Z,21.80
2019-06-26T04:23:05.589Z,21.80
2019-06-26T04:25:31.656Z,21.80
2019-06-26T04:27:58.052Z,21.90
2019-06-26T04:30:25.402Z,21.90
2019-06-26T04:32:52.501Z,21.80
2019-06-26T04:35:18.597Z,21.80
2019-06-26T04:40:12.747Z,21.90
2019-06-26T04:42:39.097Z,21.90
2019-06-26T04:50:01.122Z,22.00
2019-06-26T04:57:21.032Z,22.00
2019-06-26T04:59:47.400Z,22.10
2019-06-26T05:04:40.390Z,22.10
2019-06-26T05:11:59.612Z,22.30
2019-06-26T05:14:26.095Z,22.30
2019-06-26T05:16:52.628Z,22.30
2019-06-26T05:19:18.698Z,22.40
2019-06-26T05:24:11.187Z,22.50
2019-06-26T05:26:38.464Z,22.50
2019-06-26T05:29:04.516Z,22.60
2019-06-26T05:31:30.694Z,22.60
2019-06-26T05:33:58.068Z,22.60
2019-06-26T05:36:24.289Z,22.60
2019-06-26T05:38:50.344Z,22.70
2019-06-26T05:41:16.396Z,22.70
2019-06-26T05:43:42.777Z,22.70
2019-06-26T05:46:08.825Z,22.80
2019-06-26T05:48:34.896Z,22.80
2019-06-26T05:51:00.953Z,22.80
2019-06-26T05:53:27.025Z,22.80
2019-06-26T05:58:19.756Z,22.80
2019-06-26T06:00:47.432Z,22.90
2019-06-26T06:03:13.725Z,22.90
2019-06-26T06:05:40.164Z,22.90
2019-06-26T06:12:59.388Z,23.00
2019-06-26T06:20:38.184Z,23.10
2019-06-26T06:23:05.759Z,23.10
2019-06-26T06:35:18.381Z,23.30
2019-06-26T06:37:45.246Z,23.40
2019-06-26T06:42:38.709Z,23.40
2019-06-26T06:55:02.553Z,23.60
2019-06-26T06:59:56.733Z,23.60
2019-06-26T07:10:15.113Z,23.80
2019-06-26T07:15:09.789Z,23.90
2019-06-26T07:20:04.672Z,24.00
2019-06-26T07:22:30.764Z,24.00
2019-06-26T07:27:23.273Z,24.10
2019-06-26T07:29:49.334Z,24.10
2019-06-26T07:37:08.912Z,24.30
2019-06-26T07:39:35.293Z,24.30
2019-06-26T07:42:02.088Z,24.40
2019-06-26T07:44:28.206Z,24.40
2019-06-26T07:46:54.356Z,24.40
2019-06-26T07:51:46.860Z,24.50
2019-06-26T07:56:39.325Z,24.60
2019-06-26T07:59:05.686Z,24.70
2019-06-26T08:11:18.467Z,24.90
2019-06-26T08:13:44.520Z,24.90
2019-06-26T08:16:10.825Z,25.00
2019-06-26T08:18:36.874Z,25.00
2019-06-26T08:21:12.192Z,25.00
2019-06-26T08:25:57.660Z,25.10
2019-06-26T08:30:51.173Z,25.20
2019-06-26T08:33:17.601Z,25.20
2019-06-26T08:35:43.693Z,25.20
2019-06-26T08:38:14.360Z,25.30
2019-06-26T08:40:37.799Z,25.30
2019-06-26T08:43:04.120Z,25.40
2019-06-26T08:45:30.551Z,25.40
2019-06-26T08:47:56.888Z,25.50
2019-06-26T08:50:23.311Z,25.50
2019-06-26T08:52:49.657Z,25.50
2019-06-26T08:55:17.475Z,25.60
2019-06-26T09:00:13.397Z,25.60
2019-06-26T09:02:39.460Z,25.70
2019-06-26T09:10:00.033Z,25.80
2019-06-26T09:12:26.076Z,25.80
2019-06-26T09:14:52.145Z,25.90
2019-06-26T09:17:18.481Z,25.90
2019-06-26T09:19:44.924Z,25.90
2019-06-26T09:31:58.021Z,26.00
2019-06-26T09:34:24.065Z,26.10
2019-06-26T09:39:16.549Z,26.00
2019-06-26T09:41:42.622Z,26.00
2019-06-26T09:44:08.676Z,26.10
2019-06-26T09:46:35.045Z,26.10
2019-06-26T09:51:28.833Z,26.10
2019-06-26T09:53:54.883Z,26.10
2019-06-26T09:56:21.056Z,26.10
2019-06-26T09:58:47.421Z,26.10
2019-06-26T10:01:13.845Z,26.10
2019-06-26T10:06:06.813Z,26.10
2019-06-26T10:13:26.233Z,26.10
2019-06-26T10:15:52.540Z,26.10
2019-06-26T10:18:18.689Z,26.10
2019-06-26T10:20:44.740Z,26.10
2019-06-26T10:25:37.593Z,26.10
2019-06-26T10:28:03.675Z,26.10
2019-06-26T10:32:56.783Z,26.10
2019-06-26T10:35:23.081Z,26.10
2019-06-26T10:37:49.148Z,26.10
2019-06-26T10:40:16.936Z,26.10
2019-06-26T10:42:44.472Z,26.10
2019-06-26T10:45:13.217Z,26.10
2019-06-26T10:50:08.317Z,26.20
2019-06-26T10:52:34.683Z,26.20
2019-06-26T10:57:28.645Z,26.20
2019-06-26T11:02:22.737Z,26.20
2019-06-26T11:07:15.476Z,26.20
2019-06-26T11:09:41.833Z,26.20
2019-06-26T11:12:07.897Z,26.20
2019-06-26T11:14:33.944Z,26.20
2019-06-26T11:17:00.017Z,26.20
2019-06-26T11:19:42.363Z,26.20
2019-06-26T11:21:54.029Z,26.20
2019-06-26T11:24:20.327Z,26.20
2019-06-26T11:26:46.392Z,26.20
2019-06-26T11:29:12.456Z,26.20
2019-06-26T11:31:38.589Z,26.20
2019-06-26T11:34:04.660Z,26.20
2019-06-26T11:36:31.633Z,26.20
2019-06-26T11:38:57.696Z,26.20
2019-06-26T11:41:23.835Z,26.30
2019-06-26T11:48:43.050Z,26.30
2019-06-26T11:53:36.385Z,26.30
2019-06-26T11:56:03.833Z,26.30
2019-06-26T12:03:23.157Z,26.30
2019-06-26T12:05:49.604Z,26.40
2019-06-26T12:10:44.329Z,26.30
2019-06-26T12:13:10.716Z,26.30
2019-06-26T12:15:36.770Z,26.40
2019-06-26T12:18:02.955Z,26.40
2019-06-26T12:20:29.152Z,26.40
2019-06-26T12:22:55.221Z,26.40
2019-06-26T12:25:21.269Z,26.40
2019-06-26T12:27:47.332Z,26.40
2019-06-26T12:30:13.800Z,26.40
2019-06-26T12:32:42.559Z,26.50
2019-06-26T12:35:09.009Z,26.50
2019-06-26T12:40:05.790Z,26.50
2019-06-26T12:42:31.867Z,26.50
2019-06-26T12:44:58.017Z,26.50
2019-06-26T12:47:24.295Z,26.50
2019-06-26T12:49:50.332Z,26.50
2019-06-26T12:52:17.140Z,26.50
2019-06-26T12:54:43.551Z,26.50
2019-06-26T13:06:58.861Z,26.60
2019-06-26T13:09:23.552Z,26.60
2019-06-26T13:11:49.617Z,26.60
2019-06-26T13:14:15.665Z,26.60
2019-06-26T13:16:42.114Z,26.70
2019-06-26T13:24:01.390Z,26.70
2019-06-26T13:28:54.936Z,26.70
2019-06-26T13:31:20.973Z,26.70
2019-06-26T13:33:47.275Z,26.80
2019-06-26T13:38:40.252Z,26.80
2019-06-26T13:43:32.717Z,26.80
2019-06-26T13:45:59.063Z,26.80
2019-06-26T13:48:26.388Z,26.80
2019-06-26T13:51:07.827Z,26.90
2019-06-26T13:53:20.728Z,26.90
2019-06-26T13:55:46.773Z,26.90
2019-06-26T13:58:12.823Z,26.90
2019-06-26T14:00:39.185Z,26.90
2019-06-26T14:03:05.313Z,26.90
2019-06-26T14:05:31.366Z,26.90
2019-06-26T14:07:57.741Z,26.90
2019-06-26T14:10:23.801Z,26.90
2019-06-26T14:12:49.953Z,26.90
2019-06-26T14:20:13.130Z,27.00
2019-06-26T14:22:39.172Z,27.00
2019-06-26T14:25:07.136Z,27.00
2019-06-26T14:27:33.180Z,27.00
2019-06-26T14:29:59.260Z,27.10
2019-06-26T14:37:18.454Z,27.10
2019-06-26T14:42:11.212Z,27.10
2019-06-26T14:44:37.257Z,27.10
2019-06-26T14:47:03.321Z,27.10
2019-06-26T14:51:56.084Z,27.20
2019-06-26T14:54:22.144Z,27.20
2019-06-26T14:59:14.720Z,27.20
2019-06-26T15:01:41.092Z,27.20
2019-06-26T15:06:33.860Z,27.20
2019-06-26T15:11:26.620Z,27.20
2019-06-26T15:13:52.664Z,27.30
2019-06-26T15:16:19.505Z,27.20
2019-06-26T15:18:45.917Z,27.30
2019-06-26T15:21:12.248Z,27.30
2019-06-26T15:26:05.332Z,27.30
2019-06-26T15:28:31.376Z,27.40
2019-06-26T15:30:57.442Z,27.40
2019-06-26T15:33:23.791Z,27.40
2019-06-26T15:35:49.864Z,27.40
2019-06-26T15:38:16.188Z,27.40
2019-06-26T15:45:35.424Z,27.40
2019-06-26T15:48:01.534Z,27.40
2019-06-26T15:50:27.896Z,27.50
2019-06-26T15:52:54.232Z,27.40
2019-06-26T15:55:20.276Z,27.40
2019-06-26T15:57:46.496Z,27.50
2019-06-26T16:00:14.648Z,27.50
2019-06-26T16:02:40.983Z,27.50
2019-06-26T16:10:00.314Z,27.50
2019-06-26T16:14:53.815Z,27.50
2019-06-26T16:19:54.212Z,27.60
2019-06-26T16:24:48.852Z,27.60
2019-06-26T16:27:14.898Z,27.60
2019-06-26T16:29:40.945Z,27.60
2019-06-26T16:34:33.684Z,27.60
2019-06-26T16:36:59.744Z,27.60
2019-06-26T16:39:26.073Z,27.70
2019-06-26T16:41:52.136Z,27.60
2019-06-26T16:44:19.612Z,27.70
2019-06-26T16:49:12.184Z,27.70
2019-06-26T16:51:38.336Z,27.70
2019-06-26T16:54:04.405Z,27.60
2019-06-26T16:56:30.454Z,27.70
2019-06-26T16:58:56.524Z,27.70
2019-06-26T17:03:50.138Z,27.70
2019-06-26T17:06:16.231Z,27.70
2019-06-26T17:08:42.536Z,27.70
2019-06-26T17:11:08.601Z,27.70
2019-06-26T17:13:34.645Z,27.70
2019-06-26T17:16:01.023Z,27.70
2019-06-26T17:20:53.601Z,27.70
2019-06-26T17:23:19.644Z,27.70
2019-06-26T17:28:12.135Z,27.70
2019-06-26T17:33:04.916Z,27.70
2019-06-26T17:35:31.261Z,27.60
2019-06-26T17:37:57.684Z,27.60
2019-06-26T17:42:50.150Z,27.60
2019-06-26T17:45:16.425Z,27.60
2019-06-26T17:47:42.505Z,27.60
2019-06-26T17:50:10.171Z,27.60
2019-06-26T17:52:38.435Z,27.60
2019-06-26T17:55:08.440Z,27.60
2019-06-26T17:57:34.773Z,27.60
2019-06-26T18:00:01.110Z,27.60
2019-06-26T18:04:53.697Z,27.60
2019-06-26T18:07:20.091Z,27.60
2019-06-26T18:09:46.423Z,27.60
2019-06-26T18:12:12.489Z,27.60
2019-06-26T18:14:38.565Z,27.50
2019-06-26T18:17:17.960Z,27.50
2019-06-26T18:19:32.870Z,27.50
2019-06-26T18:21:58.915Z,27.50
2019-06-26T18:24:25.081Z,27.60
2019-06-26T18:29:17.893Z,27.50
2019-06-26T18:31:44.311Z,27.50
2019-06-26T18:34:10.640Z,27.50
2019-06-26T18:36:36.972Z,27.50
2019-06-26T18:39:06.826Z,27.50
2019-06-26T18:41:33.220Z,27.50
2019-06-26T18:43:59.267Z,27.50
2019-06-26T18:46:25.324Z,27.50
2019-06-26T18:48:51.996Z,27.40
2019-06-26T18:51:18.068Z,27.40
2019-06-26T18:53:53.601Z,27.50
2019-06-26T18:56:12.312Z,27.40
2019-06-26T18:58:38.546Z,27.40
2019-06-26T19:21:38.418Z,27.20
2019-06-26T19:24:24.360Z,27.20
2019-06-26T19:32:46.337Z,27.10
2019-06-26T19:35:19.856Z,27.00
2019-06-26T19:47:32.576Z,27.00
2019-06-26T19:55:56.656Z,26.90
2019-06-26T19:58:43.127Z,26.90
2019-06-26T20:04:13.670Z,26.80
2019-06-26T20:06:57.464Z,26.80
2019-06-26T20:09:46.128Z,26.70
2019-06-26T20:12:34.391Z,26.80
2019-06-26T20:18:34.947Z,26.70
2019-06-26T20:24:17.432Z,26.60
2019-06-26T20:29:51.848Z,26.60
2019-06-26T20:44:04.682Z,26.50
2019-06-26T20:49:52.525Z,26.50
2019-06-26T20:52:25.303Z,26.50
2019-06-26T21:00:55.414Z,26.40
2019-06-26T21:03:45.696Z,26.40
2019-06-26T21:06:20.415Z,26.40
2019-06-26T21:08:48.319Z,26.40
2019-06-26T21:11:15.850Z,26.30
2019-06-26T21:13:42.711Z,26.20
2019-06-26T21:16:08.786Z,26.20
2019-06-26T21:18:35.412Z,26.20
2019-06-26T21:23:28.436Z,26.10
2019-06-26T21:25:54.710Z,26.10
2019-06-26T21:28:20.753Z,26.00
2019-06-26T21:30:46.800Z,26.00
2019-06-26T21:35:39.680Z,25.90
2019-06-26T21:38:06.178Z,25.90
2019-06-26T21:45:26.019Z,25.90
2019-06-26T21:47:52.453Z,25.80
2019-06-26T21:50:19.454Z,25.80
2019-06-26T21:55:12.120Z,25.70
2019-06-26T22:00:07.852Z,25.70
2019-06-26T22:05:06.201Z,25.60
2019-06-26T22:10:00.235Z,25.60
2019-06-26T22:14:53.040Z,25.50
2019-06-26T22:17:19.475Z,25.50
2019-06-26T22:24:39.718Z,25.50
2019-06-26T22:27:05.842Z,25.40
2019-06-26T22:29:31.885Z,25.40
2019-06-26T22:36:52.414Z,25.20
2019-06-26T22:39:19.406Z,25.00
2019-06-26T22:41:45.465Z,25.10
2019-06-26T22:44:11.525Z,25.00
2019-06-26T22:46:37.897Z,25.10
2019-06-26T22:49:04.057Z,25.10
2019-06-26T22:51:30.129Z,25.00
2019-06-26T22:53:56.173Z,25.00
2019-06-26T22:56:25.054Z,25.00
2019-06-26T22:58:51.107Z,25.00
2019-06-26T23:01:17.405Z,25.00
2019-06-26T23:06:10.293Z,25.00
2019-06-26T23:08:36.366Z,24.80
2019-06-26T23:13:29.261Z,24.80
2019-06-26T23:15:55.595Z,24.90
2019-06-26T23:18:21.928Z,25.00
2019-06-26T23:25:41.157Z,25.00
2019-06-26T23:28:07.525Z,25.00
2019-06-26T23:30:33.584Z,25.10
2019-06-26T23:32:59.904Z,25.00
2019-06-26T23:37:52.417Z,25.00
2019-06-26T23:40:19.370Z,25.00
2019-06-26T23:45:14.120Z,25.00
2019-06-26T23:50:08.107Z,25.00
2019-06-26T23:52:34.448Z,25.00
2019-06-26T23:57:28.013Z,25.00
2019-06-26T23:59:54.453Z,25.00
